Time;durP1;ratioP1;P1;durP2;ratioP2;P2;SDS_P1;SDS_P2;PMS_P1;PMS_P2;Temp;Humidity;BMP_temperature;BMP_pressure;BME280_temperature;BME280_humidity;BME280_pressure;Samples;Min_cycle;Max_cycle;Signal;HPM_P1;HPM_P2
2023/05/03 00:00:47;;;;;;;;;;;5.50;99.90;;;;;;5178409;27;19959;-40
2023/05/03 00:03:13;;;;;;;;;;;5.50;99.90;;;;;;5178238;27;19906;-41
2023/05/03 00:05:38;;;;;;;;;;;5.50;99.90;;;;;;5177538;27;20006;-40
2023/05/03 00:08:04;;;;;;;;;;;5.40;99.90;;;;;;5178242;27;20345;-40
2023/05/03 00:10:29;;;;;;;;;;;5.40;99.90;;;;;;5176624;27;19907;-39
2023/05/03 00:12:55;;;;;;;;;;;5.40;99.90;;;;;;5177269;27;19957;-39
2023/05/03 00:15:21;;;;;;;;;;;5.40;99.90;;;;;;5176413;27;19917;-39
2023/05/03 00:17:46;;;;;;;;;;;5.30;99.90;;;;;;5159101;27;19915;-39
2023/05/03 00:20:12;;;;;;;;;;;5.30;99.90;;;;;;5177522;27;19966;-39
2023/05/03 00:22:37;;;;;;;;;;;5.20;99.90;;;;;;5177945;27;19918;-39
2023/05/03 00:25:03;;;;;;;;;;;5.20;99.90;;;;;;5177194;27;20353;-40
2023/05/03 00:27:29;;;;;;;;;;;5.20;99.90;;;;;;5177849;27;19914;-40
2023/05/03 00:29:54;;;;;;;;;;;5.20;99.90;;;;;;5177791;27;19906;-39
2023/05/03 00:32:21;;;;;;;;;;;5.20;99.90;;;;;;5176637;27;19976;-40
2023/05/03 00:34:53;;;;;;;;;;;5.30;99.90;;;;;;5177906;27;19914;-40
2023/05/03 00:37:19;;;;;;;;;;;5.30;99.90;;;;;;5177602;27;19954;-40
2023/05/03 00:39:44;;;;;;;;;;;5.30;99.90;;;;;;5176800;27;19956;-39
2023/05/03 00:42:10;;;;;;;;;;;5.40;99.90;;;;;;5177628;27;20042;-39
2023/05/03 00:44:35;;;;;;;;;;;5.40;99.90;;;;;;5177403;27;19907;-39
2023/05/03 00:47:01;;;;;;;;;;;5.40;99.90;;;;;;5176582;27;19918;-41
2023/05/03 00:49:27;;;;;;;;;;;5.50;99.90;;;;;;5177004;27;19917;-41
2023/05/03 00:51:53;;;;;;;;;;;5.50;99.90;;;;;;5177449;27;20309;-40
2023/05/03 00:54:19;;;;;;;;;;;5.60;99.90;;;;;;5176528;27;19907;-40
2023/05/03 00:56:45;;;;;;;;;;;5.50;99.90;;;;;;5176860;27;20357;-42
2023/05/03 00:59:12;;;;;;;;;;;5.50;99.90;;;;;;5177263;27;19921;-42
2023/05/03 01:01:37;;;;;;;;;;;5.60;99.90;;;;;;5176674;27;19942;-40
2023/05/03 01:04:03;;;;;;;;;;;5.60;99.90;;;;;;5177160;27;19942;-40
2023/05/03 01:06:31;;;;;;;;;;;5.60;99.90;;;;;;5177140;27;19907;-39
2023/05/03 01:09:16;;;;;;;;;;;5.60;99.90;;;;;;5176327;27;19907;-39
2023/05/03 01:11:59;;;;;;;;;;;5.70;99.90;;;;;;5176884;27;20299;-41
2023/05/03 01:14:43;;;;;;;;;;;5.70;99.90;;;;;;5176138;27;19911;-40
2023/05/03 01:17:13;;;;;;;;;;;5.70;99.90;;;;;;5176847;27;20013;-40
2023/05/03 01:19:47;;;;;;;;;;;5.70;99.90;;;;;;5176444;27;20400;-40
2023/05/03 01:22:16;;;;;;;;;;;5.70;99.90;;;;;;5175522;27;19914;-40
2023/05/03 01:24:44;;;;;;;;;;;5.60;99.90;;;;;;5176725;27;19907;-41
2023/05/03 01:27:10;;;;;;;;;;;5.60;99.90;;;;;;5176237;27;19910;-41
2023/05/03 01:29:36;;;;;;;;;;;5.60;99.90;;;;;;5175508;27;19911;-39
2023/05/03 01:32:03;;;;;;;;;;;5.60;99.90;;;;;;5176362;27;20203;-39
2023/05/03 01:34:37;;;;;;;;;;;5.60;99.90;;;;;;5176501;27;19907;-40
2023/05/03 01:37:04;;;;;;;;;;;5.60;99.90;;;;;;5175627;27;19930;-41
2023/05/03 01:39:50;;;;;;;;;;;5.60;99.90;;;;;;5176400;27;19907;-39
2023/05/03 01:42:16;;;;;;;;;;;5.60;99.90;;;;;;5175548;27;20365;-41
2023/05/03 01:44:42;;;;;;;;;;;5.60;99.90;;;;;;5176326;27;19995;-40
2023/05/03 01:47:08;;;;;;;;;;;5.60;99.90;;;;;;5175697;27;20362;-40
2023/05/03 01:49:34;;;;;;;;;;;5.60;99.90;;;;;;5175278;27;19918;-40
2023/05/03 01:51:59;;;;;;;;;;;5.60;99.90;;;;;;5176278;27;19911;-40
2023/05/03 01:54:25;;;;;;;;;;;5.60;99.90;;;;;;5176136;27;19951;-41
2023/05/03 01:56:50;;;;;;;;;;;5.60;99.90;;;;;;5175475;27;19911;-40
2023/05/03 01:59:16;;;;;;;;;;;5.60;99.90;;;;;;5176041;27;20292;-41
2023/05/03 02:01:41;;;;;;;;;;;5.60;99.90;;;;;;5175967;27;19907;-40
2023/05/03 02:04:07;;;;;;;;;;;5.60;99.90;;;;;;5175099;27;19949;-41
2023/05/03 02:06:32;;;;;;;;;;;5.60;99.90;;;;;;5176050;27;19910;-40
2023/05/03 02:08:58;;;;;;;;;;;5.50;99.90;;;;;;5175866;27;19951;-40
2023/05/03 02:11:23;;;;;;;;;;;5.50;99.90;;;;;;5175038;27;19914;-39
2023/05/03 02:13:49;;;;;;;;;;;5.50;99.90;;;;;;5175934;27;20284;-41
2023/05/03 02:16:16;;;;;;;;;;;5.50;99.90;;;;;;5175757;27;19907;-40
2023/05/03 02:18:42;;;;;;;;;;;5.50;99.90;;;;;;5174313;27;19922;-40
2023/05/03 02:21:07;;;;;;;;;;;5.50;99.90;;;;;;5175224;27;20387;-40
2023/05/03 02:23:33;;;;;;;;;;;5.50;99.90;;;;;;5175556;27;19997;-40
2023/05/03 02:25:58;;;;;;;;;;;5.50;99.90;;;;;;5174824;27;19907;-41
2023/05/03 02:28:24;;;;;;;;;;;5.40;99.90;;;;;;5174636;27;19922;-41
2023/05/03 02:30:49;;;;;;;;;;;5.40;99.90;;;;;;5175337;27;19964;-40
2023/05/03 02:33:15;;;;;;;;;;;5.40;99.90;;;;;;5174404;27;20009;-40
2023/05/03 02:35:41;;;;;;;;;;;5.40;99.90;;;;;;5174683;27;19911;-40
2023/05/03 02:38:06;;;;;;;;;;;5.30;99.90;;;;;;5174484;27;19915;-39
2023/05/03 02:40:32;;;;;;;;;;;5.30;99.90;;;;;;5175397;27;19913;-40
2023/05/03 02:42:57;;;;;;;;;;;5.30;99.90;;;;;;5175447;27;19906;-40
2023/05/03 02:45:23;;;;;;;;;;;5.30;99.90;;;;;;5174627;27;19967;-40
2023/05/03 02:47:48;;;;;;;;;;;5.30;99.90;;;;;;5175256;27;19907;-40
2023/05/03 02:50:14;;;;;;;;;;;5.30;99.90;;;;;;5175335;27;19974;-40
2023/05/03 02:52:39;;;;;;;;;;;5.30;99.90;;;;;;5174459;27;19914;-41
2023/05/03 02:55:05;;;;;;;;;;;5.30;99.90;;;;;;5175273;27;20030;-39
2023/05/03 02:57:30;;;;;;;;;;;5.20;99.90;;;;;;5174794;27;20324;-40
2023/05/03 02:59:56;;;;;;;;;;;5.20;99.90;;;;;;5174543;27;19907;-39
2023/05/03 03:02:22;;;;;;;;;;;5.10;99.90;;;;;;5175089;27;19907;-40
2023/05/03 03:04:47;;;;;;;;;;;5.10;99.90;;;;;;5175280;27;19911;-39
2023/05/03 03:07:13;;;;;;;;;;;5.10;99.90;;;;;;5173980;27;19953;-40
2023/05/03 03:09:38;;;;;;;;;;;5.10;99.90;;;;;;5175006;27;19918;-39
2023/05/03 03:12:04;;;;;;;;;;;5.10;99.90;;;;;;5175114;27;19955;-41
2023/05/03 03:14:29;;;;;;;;;;;5.10;99.90;;;;;;5174238;27;20348;-40
2023/05/03 03:16:55;;;;;;;;;;;5.00;99.90;;;;;;5175000;27;19914;-40
2023/05/03 03:19:20;;;;;;;;;;;5.00;99.90;;;;;;5174983;27;20273;-40
2023/05/03 03:21:46;;;;;;;;;;;5.00;99.90;;;;;;5174150;27;20021;-39
2023/05/03 03:24:11;;;;;;;;;;;5.00;99.90;;;;;;5175050;27;19962;-40
2023/05/03 03:26:37;;;;;;;;;;;5.00;99.90;;;;;;5174902;27;19907;-41
2023/05/03 03:29:02;;;;;;;;;;;5.00;99.90;;;;;;5173899;27;19913;-41
2023/05/03 03:31:27;;;;;;;;;;;5.00;99.90;;;;;;5174565;27;19926;-40
2023/05/03 03:33:53;;;;;;;;;;;5.00;99.90;;;;;;5175019;27;20280;-40
2023/05/03 03:36:18;;;;;;;;;;;5.00;99.90;;;;;;5173708;27;19911;-39
2023/05/03 03:38:44;;;;;;;;;;;5.00;99.90;;;;;;5174979;27;19915;-41
2023/05/03 03:41:11;;;;;;;;;;;5.00;99.90;;;;;;5174043;27;20146;-40
2023/05/03 03:43:37;;;;;;;;;;;4.90;99.90;;;;;;5174141;27;19994;-39
2023/05/03 03:46:02;;;;;;;;;;;4.90;99.90;;;;;;5176274;27;19929;-40
2023/05/03 03:48:28;;;;;;;;;;;4.90;99.90;;;;;;5177821;27;19911;-40
2023/05/03 03:50:53;;;;;;;;;;;4.90;99.90;;;;;;5178572;27;19929;-40
2023/05/03 03:53:19;;;;;;;;;;;4.80;99.90;;;;;;5178558;27;19907;-41
2023/05/03 03:55:44;;;;;;;;;;;4.80;99.90;;;;;;5177755;27;19911;-39
2023/05/03 03:58:09;;;;;;;;;;;4.80;99.90;;;;;;5177792;27;19970;-40
2023/05/03 04:00:35;;;;;;;;;;;4.80;99.90;;;;;;5178421;27;19939;-40
2023/05/03 04:03:01;;;;;;;;;;;4.80;99.90;;;;;;5177792;27;20352;-39
2023/05/03 04:05:26;;;;;;;;;;;4.70;99.90;;;;;;5178134;27;19929;-40
2023/05/03 04:07:52;;;;;;;;;;;4.80;99.90;;;;;;5178051;27;19981;-39
2023/05/03 04:10:17;;;;;;;;;;;4.70;99.90;;;;;;5177542;27;19954;-39
2023/05/03 04:12:43;;;;;;;;;;;4.70;99.90;;;;;;5178228;27;19914;-40
2023/05/03 04:15:09;;;;;;;;;;;4.80;99.90;;;;;;5178536;27;19907;-40
2023/05/03 04:17:35;;;;;;;;;;;4.80;99.90;;;;;;5177204;27;19922;-40
2023/05/03 04:20:04;;;;;;;;;;;4.80;99.90;;;;;;5178229;27;19906;-40
2023/05/03 04:22:31;;;;;;;;;;;4.90;99.90;;;;;;5178011;27;19907;-40
2023/05/03 04:24:56;;;;;;;;;;;4.90;99.90;;;;;;5177409;27;19907;-39
2023/05/03 04:27:22;;;;;;;;;;;4.90;99.90;;;;;;5177536;27;19917;-40
2023/05/03 04:29:49;;;;;;;;;;;5.00;99.90;;;;;;5177549;27;19998;-41
2023/05/03 04:32:15;;;;;;;;;;;5.00;99.90;;;;;;5176740;27;19926;-40
2023/05/03 04:34:41;;;;;;;;;;;5.10;99.90;;;;;;5167263;27;19918;-40
2023/05/03 04:37:08;;;;;;;;;;;5.10;99.90;;;;;;5156785;27;19907;-40
2023/05/03 04:39:33;;;;;;;;;;;5.10;99.90;;;;;;5156225;27;19911;-40
2023/05/03 04:42:00;;;;;;;;;;;5.20;99.90;;;;;;5158517;27;20376;-40
2023/05/03 04:44:26;;;;;;;;;;;5.20;99.90;;;;;;5176576;27;19918;-40
2023/05/03 04:46:52;;;;;;;;;;;5.30;99.90;;;;;;5176286;27;20305;-40
2023/05/03 04:49:17;;;;;;;;;;;5.30;99.90;;;;;;5176286;27;20005;-40
2023/05/03 04:51:43;;;;;;;;;;;5.40;99.90;;;;;;5176061;27;19914;-41
2023/05/03 04:54:08;;;;;;;;;;;5.40;99.90;;;;;;5174059;27;20263;-40
2023/05/03 04:56:34;;;;;;;;;;;5.40;99.90;;;;;;5176222;27;20376;-40
2023/05/03 04:59:00;;;;;;;;;;;5.50;99.90;;;;;;5175026;27;20408;-40
2023/05/03 05:01:26;;;;;;;;;;;5.50;99.90;;;;;;5176478;27;19975;-40
2023/05/03 05:03:52;;;;;;;;;;;5.50;99.90;;;;;;5176629;27;19912;-41
2023/05/03 05:06:18;;;;;;;;;;;5.60;99.90;;;;;;5175735;27;19914;-40
2023/05/03 05:08:43;;;;;;;;;;;5.70;99.90;;;;;;5176370;27;19921;-41
2023/05/03 05:11:09;;;;;;;;;;;5.70;99.90;;;;;;5176565;27;19959;-40
2023/05/03 05:13:35;;;;;;;;;;;5.80;99.90;;;;;;5175561;27;19946;-42
2023/05/03 05:16:00;;;;;;;;;;;5.80;99.90;;;;;;5176418;27;19911;-41
2023/05/03 05:18:26;;;;;;;;;;;6.00;99.90;;;;;;5176152;27;19921;-40
2023/05/03 05:20:52;;;;;;;;;;;6.00;99.90;;;;;;5174955;27;20009;-40
2023/05/03 05:23:17;;;;;;;;;;;6.10;99.90;;;;;;5175772;27;19935;-40
2023/05/03 05:25:44;;;;;;;;;;;6.20;99.90;;;;;;5175814;27;20333;-41
2023/05/03 05:28:10;;;;;;;;;;;6.30;99.90;;;;;;5174721;27;19911;-41
2023/05/03 05:30:35;;;;;;;;;;;6.30;99.90;;;;;;5175938;27;19907;-41
2023/05/03 05:33:01;;;;;;;;;;;6.40;99.90;;;;;;5175772;27;20340;-43
2023/05/03 05:35:26;;;;;;;;;;;6.50;99.90;;;;;;5175297;27;19989;-40
2023/05/03 05:37:51;;;;;;;;;;;6.60;99.90;;;;;;5176079;27;19922;-40
2023/05/03 05:40:17;;;;;;;;;;;6.70;99.90;;;;;;5175797;27;20456;-42
2023/05/03 05:42:45;;;;;;;;;;;6.70;99.90;;;;;;5174855;27;19907;-41
2023/05/03 05:45:11;;;;;;;;;;;6.90;99.90;;;;;;5175543;27;19912;-41
2023/05/03 05:47:36;;;;;;;;;;;6.90;99.90;;;;;;5174992;27;19907;-41
2023/05/03 05:50:02;;;;;;;;;;;7.00;99.90;;;;;;5173991;27;19921;-41
2023/05/03 05:52:28;;;;;;;;;;;7.00;99.90;;;;;;5174334;27;20486;-41
2023/05/03 05:54:54;;;;;;;;;;;7.10;99.90;;;;;;5174731;27;20188;-40
2023/05/03 05:57:19;;;;;;;;;;;7.10;99.90;;;;;;5170737;27;20805;-40
2023/05/03 05:59:45;;;;;;;;;;;7.20;99.90;;;;;;5174126;27;19910;-41
2023/05/03 06:02:13;;;;;;;;;;;7.30;99.90;;;;;;5173777;27;19966;-40
2023/05/03 06:04:38;;;;;;;;;;;7.40;99.90;;;;;;5173950;27;19922;-41
2023/05/03 06:07:04;;;;;;;;;;;7.40;99.90;;;;;;5174240;27;19907;-41
2023/05/03 06:09:29;;;;;;;;;;;7.50;99.90;;;;;;5173597;27;19975;-40
2023/05/03 06:11:55;;;;;;;;;;;7.60;99.90;;;;;;5174368;27;19953;-41
2023/05/03 06:14:20;;;;;;;;;;;7.70;99.90;;;;;;5168886;27;19914;-40
2023/05/03 06:16:46;;;;;;;;;;;7.80;99.90;;;;;;5173556;27;19907;-40
2023/05/03 06:19:11;;;;;;;;;;;7.90;99.90;;;;;;5174098;27;20018;-41
2023/05/03 06:21:37;;;;;;;;;;;8.00;99.90;;;;;;5173637;27;19963;-41
2023/05/03 06:24:02;;;;;;;;;;;8.10;99.90;;;;;;5174377;27;19946;-41
2023/05/03 06:26:28;;;;;;;;;;;8.20;99.90;;;;;;5175499;27;20383;-42
2023/05/03 06:28:53;;;;;;;;;;;8.20;99.90;;;;;;5167016;27;19919;-41
2023/05/03 06:31:19;;;;;;;;;;;8.30;99.90;;;;;;5153586;27;20365;-41
2023/05/03 06:33:44;;;;;;;;;;;8.40;99.90;;;;;;5164582;27;19969;-40
2023/05/03 06:36:10;;;;;;;;;;;8.60;99.90;;;;;;5174794;27;19914;-42
2023/05/03 06:38:36;;;;;;;;;;;8.70;99.90;;;;;;5173334;27;19976;-40
2023/05/03 06:41:01;;;;;;;;;;;8.70;99.90;;;;;;5175161;27;19918;-41
2023/05/03 06:43:27;;;;;;;;;;;8.80;99.90;;;;;;5175263;27;19906;-41
2023/05/03 06:45:52;;;;;;;;;;;8.80;99.90;;;;;;5174278;27;19931;-41
2023/05/03 06:48:18;;;;;;;;;;;8.90;99.90;;;;;;5175468;27;19907;-42
2023/05/03 06:50:43;;;;;;;;;;;8.90;99.90;;;;;;5174975;27;19906;-41
2023/05/03 06:53:09;;;;;;;;;;;9.00;99.90;;;;;;5174410;27;19911;-41
2023/05/03 06:55:34;;;;;;;;;;;9.00;99.90;;;;;;5175101;27;19911;-40
2023/05/03 06:58:00;;;;;;;;;;;9.00;99.90;;;;;;5175167;27;19918;-41
2023/05/03 07:00:25;;;;;;;;;;;9.10;99.90;;;;;;5165800;27;19906;-42
2023/05/03 07:02:51;;;;;;;;;;;9.20;99.90;;;;;;5164381;27;19925;-41
2023/05/03 07:05:16;;;;;;;;;;;9.20;99.90;;;;;;5174872;27;20307;-41
2023/05/03 07:07:42;;;;;;;;;;;9.30;99.90;;;;;;5174630;27;19917;-41
2023/05/03 07:10:07;;;;;;;;;;;9.30;99.90;;;;;;5174970;27;19907;-40
2023/05/03 07:12:33;;;;;;;;;;;9.40;99.90;;;;;;5174299;27;19998;-40
2023/05/03 07:14:58;;;;;;;;;;;9.40;99.90;;;;;;5175085;27;19907;-40
2023/05/03 07:17:24;;;;;;;;;;;9.50;99.90;;;;;;5174245;27;20360;-40
2023/05/03 07:19:50;;;;;;;;;;;9.50;99.90;;;;;;5165908;27;19918;-41
2023/05/03 07:22:16;;;;;;;;;;;9.50;99.90;;;;;;5173884;27;20001;-40
2023/05/03 07:24:42;;;;;;;;;;;9.60;99.90;;;;;;5174316;27;19952;-40
2023/05/03 07:27:07;;;;;;;;;;;9.60;99.90;;;;;;5178328;27;19958;-41
2023/05/03 07:29:33;;;;;;;;;;;9.70;99.90;;;;;;5177693;27;19906;-40
2023/05/03 07:31:58;;;;;;;;;;;9.70;99.90;;;;;;5178674;27;20440;-41
2023/05/03 07:34:24;;;;;;;;;;;9.80;99.90;;;;;;5176034;27;19915;-41
2023/05/03 07:36:50;;;;;;;;;;;9.80;99.90;;;;;;5178184;27;19911;-42
2023/05/03 07:39:16;;;;;;;;;;;9.90;99.90;;;;;;5173763;27;20281;-43
2023/05/03 07:41:41;;;;;;;;;;;9.90;99.90;;;;;;5177410;27;20395;-43
2023/05/03 07:44:07;;;;;;;;;;;10.00;99.90;;;;;;5178107;27;19949;-41
2023/05/03 07:46:33;;;;;;;;;;;10.10;99.90;;;;;;5169129;27;19923;-42
2023/05/03 07:49:00;;;;;;;;;;;10.10;99.90;;;;;;5175071;27;19917;-41
2023/05/03 07:51:27;;;;;;;;;;;10.20;99.90;;;;;;5178314;27;19917;-40
2023/05/03 07:53:53;;;;;;;;;;;10.20;99.90;;;;;;5178242;27;19956;-41
2023/05/03 07:56:20;;;;;;;;;;;10.20;99.90;;;;;;5177794;27;19910;-41
2023/05/03 07:58:45;;;;;;;;;;;10.20;99.90;;;;;;5161679;27;19919;-41
2023/05/03 08:01:11;;;;;;;;;;;10.30;99.90;;;;;;5157739;27;20411;-40
2023/05/03 08:03:37;;;;;;;;;;;10.30;99.90;;;;;;5162626;27;19910;-42
2023/05/03 08:06:02;;;;;;;;;;;10.40;99.90;;;;;;5174750;27;19922;-41
2023/05/03 08:08:28;;;;;;;;;;;10.40;99.90;;;;;;5174600;27;19938;-41
2023/05/03 08:10:53;;;;;;;;;;;10.50;99.90;;;;;;5174376;27;19910;-40
2023/05/03 08:13:21;;;;;;;;;;;10.50;99.90;;;;;;5173965;27;19911;-40
2023/05/03 08:15:47;;;;;;;;;;;10.50;99.90;;;;;;5164322;27;19911;-40
2023/05/03 08:18:12;;;;;;;;;;;10.60;99.90;;;;;;5157312;27;20059;-40
2023/05/03 08:20:38;;;;;;;;;;;10.70;99.90;;;;;;5159546;27;19922;-42
2023/05/03 08:23:03;;;;;;;;;;;10.70;99.90;;;;;;5168683;27;19911;-40
2023/05/03 08:25:29;;;;;;;;;;;10.70;99.90;;;;;;5163349;27;20291;-40
2023/05/03 08:27:54;;;;;;;;;;;10.80;99.90;;;;;;5162702;27;19918;-40
2023/05/03 08:30:24;;;;;;;;;;;10.80;99.90;;;;;;5172214;27;19913;-41
2023/05/03 08:32:50;;;;;;;;;;;10.90;99.90;;;;;;5156087;27;20368;-40
2023/05/03 08:35:16;;;;;;;;;;;11.00;99.90;;;;;;5159041;27;20002;-40
2023/05/03 08:37:42;;;;;;;;;;;11.00;99.90;;;;;;5176956;27;19918;-42
2023/05/03 08:40:12;;;;;;;;;;;11.00;99.90;;;;;;5178398;27;20360;-41
2023/05/03 08:42:38;;;;;;;;;;;11.00;99.90;;;;;;5178316;27;19907;-41
2023/05/03 08:45:05;;;;;;;;;;;11.10;99.90;;;;;;5177829;27;19933;-42
2023/05/03 08:47:34;;;;;;;;;;;11.20;99.90;;;;;;5178337;27;20009;-42
2023/05/03 08:50:02;;;;;;;;;;;11.30;99.90;;;;;;5178246;27;19907;-41
2023/05/03 08:52:28;;;;;;;;;;;11.40;99.90;;;;;;5177480;27;19950;-41
2023/05/03 08:54:53;;;;;;;;;;;11.50;99.90;;;;;;5177811;27;19917;-41
2023/05/03 08:57:21;;;;;;;;;;;11.60;99.90;;;;;;5166272;27;19911;-42
2023/05/03 08:59:47;;;;;;;;;;;11.70;99.90;;;;;;5156545;27;19919;-41
2023/05/03 09:02:13;;;;;;;;;;;11.90;99.90;;;;;;5159825;27;20051;-41
2023/05/03 09:04:38;;;;;;;;;;;12.00;99.90;;;;;;5169944;27;20469;-41
2023/05/03 09:07:08;;;;;;;;;;;12.30;99.90;;;;;;5169541;27;19914;-41
2023/05/03 09:09:33;;;;;;;;;;;12.40;99.90;;;;;;5173078;27;19911;-41
2023/05/03 09:11:59;;;;;;;;;;;12.40;99.90;;;;;;5154734;27;20055;-41
2023/05/03 09:14:24;;;;;;;;;;;12.30;99.90;;;;;;5156536;27;19911;-41
2023/05/03 09:16:50;;;;;;;;;;;12.30;99.90;;;;;;5167292;27;19913;-42
2023/05/03 09:19:15;;;;;;;;;;;12.30;99.90;;;;;;5175477;27;20502;-41
2023/05/03 09:21:45;;;;;;;;;;;12.20;99.90;;;;;;5175449;27;19906;-41
2023/05/03 09:24:12;;;;;;;;;;;12.30;99.90;;;;;;5176045;27;20308;-41
2023/05/03 09:26:39;;;;;;;;;;;12.30;99.90;;;;;;5175232;27;19914;-44
2023/05/03 09:29:05;;;;;;;;;;;12.40;99.90;;;;;;5176319;27;19913;-41
2023/05/03 09:31:31;;;;;;;;;;;12.40;99.90;;;;;;5176136;27;19919;-41
2023/05/03 09:33:57;;;;;;;;;;;12.40;99.90;;;;;;5175784;27;19906;-42
2023/05/03 09:36:23;;;;;;;;;;;12.40;99.90;;;;;;5176434;27;19906;-41
2023/05/03 09:38:50;;;;;;;;;;;12.40;99.90;;;;;;5175816;27;19919;-40
2023/05/03 09:41:24;;;;;;;;;;;12.40;99.10;;;;;;5175718;27;19993;-40
2023/05/03 09:43:51;;;;;;;;;;;12.40;99.90;;;;;;5175439;27;19911;-41
2023/05/03 09:46:17;;;;;;;;;;;12.40;99.90;;;;;;5176442;27;19914;-42
2023/05/03 09:48:43;;;;;;;;;;;12.50;99.90;;;;;;5174590;27;19967;-40
2023/05/03 09:51:10;;;;;;;;;;;12.40;99.90;;;;;;5175453;27;19911;-41
2023/05/03 09:53:36;;;;;;;;;;;12.50;99.90;;;;;;5175720;27;19915;-41
2023/05/03 09:56:03;;;;;;;;;;;12.50;98.50;;;;;;5175409;27;20385;-41
2023/05/03 09:58:33;;;;;;;;;;;12.40;99.40;;;;;;5168201;27;19919;-42
2023/05/03 10:00:59;;;;;;;;;;;12.40;97.90;;;;;;5155489;27;20399;-41
2023/05/03 10:03:33;;;;;;;;;;;12.30;99.10;;;;;;5158569;27;19976;-41
2023/05/03 10:06:00;;;;;;;;;;;12.20;99.80;;;;;;5174568;27;20368;-42
2023/05/03 10:08:42;;;;;;;;;;;12.10;99.50;;;;;;5173677;27;19911;-41
2023/05/03 10:11:08;;;;;;;;;;;12.10;99.10;;;;;;5174352;27;20375;-41
2023/05/03 10:13:35;;;;;;;;;;;12.10;99.30;;;;;;5174173;27;19917;-40
2023/05/03 10:16:08;;;;;;;;;;;12.10;99.40;;;;;;5166226;27;19911;-41
2023/05/03 10:18:36;;;;;;;;;;;12.10;99.90;;;;;;5158456;27;20326;-41
2023/05/03 10:21:13;;;;;;;;;;;12.20;99.90;;;;;;5154591;27;19930;-42
2023/05/03 10:23:57;;;;;;;;;;;12.30;98.80;;;;;;5153174;27;19914;-41
2023/05/03 10:26:24;;;;;;;;;;;12.30;98.00;;;;;;5173429;27;19915;-43
2023/05/03 10:28:49;;;;;;;;;;;12.50;99.90;;;;;;5174612;27;19928;-41
2023/05/03 10:31:33;;;;;;;;;;;12.60;99.90;;;;;;5173205;27;20338;-41
2023/05/03 10:33:59;;;;;;;;;;;12.70;99.90;;;;;;5157276;27;20333;-41
2023/05/03 10:36:25;;;;;;;;;;;12.70;99.70;;;;;;5166391;27;19943;-41
2023/05/03 10:38:51;;;;;;;;;;;12.80;99.40;;;;;;5163026;27;19915;-41
2023/05/03 10:41:23;;;;;;;;;;;12.80;97.80;;;;;;5174569;27;20238;-41
2023/05/03 10:43:48;;;;;;;;;;;12.80;98.90;;;;;;5174586;27;19907;-41
2023/05/03 10:46:29;;;;;;;;;;;12.90;99.90;;;;;;5175376;27;20005;-41
2023/05/03 10:49:13;;;;;;;;;;;13.10;98.00;;;;;;5174847;27;19959;-42
2023/05/03 10:51:41;;;;;;;;;;;13.30;98.40;;;;;;5170252;27;20005;-41
2023/05/03 10:54:08;;;;;;;;;;;13.70;99.90;;;;;;5173813;27;19941;-41
2023/05/03 10:56:45;;;;;;;;;;;13.90;99.90;;;;;;5166349;27;19906;-40
2023/05/03 10:59:11;;;;;;;;;;;14.20;98.70;;;;;;5162573;27;20361;-40
2023/05/03 11:01:37;;;;;;;;;;;14.40;97.40;;;;;;5159670;27;19911;-41
2023/05/03 11:04:06;;;;;;;;;;;14.50;93.00;;;;;;5165734;27;20009;-40
2023/05/03 11:06:36;;;;;;;;;;;14.60;95.50;;;;;;5158644;27;19911;-40
2023/05/03 11:09:03;;;;;;;;;;;14.80;93.70;;;;;;5154949;27;19918;-40
2023/05/03 11:11:29;;;;;;;;;;;14.80;93.70;;;;;;5156395;27;19934;-41
2023/05/03 11:13:56;;;;;;;;;;;14.60;90.60;;;;;;5156569;27;19911;-40
2023/05/03 11:16:22;;;;;;;;;;;14.40;93.60;;;;;;5157027;27;19958;-40
2023/05/03 11:18:47;;;;;;;;;;;14.40;93.90;;;;;;5155398;27;20390;-41
2023/05/03 11:21:13;;;;;;;;;;;14.50;95.00;;;;;;5165801;27;19911;-40
2023/05/03 11:23:39;;;;;;;;;;;14.50;92.80;;;;;;5170961;27;20288;-40
2023/05/03 11:26:05;;;;;;;;;;;14.60;92.80;;;;;;5175200;27;19930;-41
2023/05/03 11:28:30;;;;;;;;;;;14.60;93.60;;;;;;5175529;27;19911;-40
2023/05/03 11:30:56;;;;;;;;;;;14.60;89.20;;;;;;5175711;27;19963;-41
2023/05/03 11:33:21;;;;;;;;;;;14.60;90.10;;;;;;5174903;27;19925;-40
2023/05/03 11:35:47;;;;;;;;;;;14.50;88.10;;;;;;5174105;27;19979;-42
2023/05/03 11:38:12;;;;;;;;;;;14.50;90.80;;;;;;5173857;27;19922;-40
2023/05/03 11:40:38;;;;;;;;;;;14.50;90.50;;;;;;5173522;27;19913;-41
2023/05/03 11:43:06;;;;;;;;;;;14.50;86.70;;;;;;5173024;27;19918;-40
2023/05/03 11:45:37;;;;;;;;;;;14.60;92.50;;;;;;5172610;27;20009;-40
2023/05/03 11:48:02;;;;;;;;;;;14.70;90.90;;;;;;5172303;27;19911;-41
2023/05/03 11:50:44;;;;;;;;;;;14.80;88.20;;;;;;5167646;27;19919;-42
2023/05/03 11:53:10;;;;;;;;;;;14.80;87.10;;;;;;5166544;27;20392;-40
2023/05/03 11:55:45;;;;;;;;;;;14.80;90.20;;;;;;5170676;27;19918;-41
2023/05/03 11:58:17;;;;;;;;;;;14.90;88.00;;;;;;5171496;27;20373;-40
2023/05/03 12:00:48;;;;;;;;;;;14.90;89.60;;;;;;5171546;27;19911;-42
2023/05/03 12:03:18;;;;;;;;;;;14.80;86.60;;;;;;5173082;27;19978;-40
2023/05/03 12:05:44;;;;;;;;;;;14.80;82.50;;;;;;5172346;27;19915;-42
2023/05/03 12:08:10;;;;;;;;;;;14.80;84.00;;;;;;5175380;27;19911;-43
2023/05/03 12:10:36;;;;;;;;;;;14.90;89.00;;;;;;5173666;27;19914;-42
2023/05/03 12:13:02;;;;;;;;;;;14.90;85.90;;;;;;5172077;27;20313;-40
2023/05/03 12:15:28;;;;;;;;;;;15.10;91.60;;;;;;5173280;27;19922;-39
2023/05/03 12:17:57;;;;;;;;;;;15.20;88.80;;;;;;5160618;27;19918;-41
2023/05/03 12:20:24;;;;;;;;;;;15.20;81.30;;;;;;5158423;27;19915;-40
2023/05/03 12:22:56;;;;;;;;;;;15.20;82.90;;;;;;5165432;27;19915;-40
2023/05/03 12:25:22;;;;;;;;;;;15.30;89.70;;;;;;5162578;27;19911;-40
2023/05/03 12:27:48;;;;;;;;;;;15.40;84.40;;;;;;5159844;27;19917;-41
2023/05/03 12:30:14;;;;;;;;;;;15.30;83.30;;;;;;5158652;27;19960;-40
2023/05/03 12:32:40;;;;;;;;;;;15.50;82.10;;;;;;5157200;27;19919;-40
2023/05/03 12:35:07;;;;;;;;;;;15.40;78.80;;;;;;5169890;27;19917;-40
2023/05/03 12:37:33;;;;;;;;;;;15.50;79.90;;;;;;5169810;27;20014;-42
2023/05/03 12:39:59;;;;;;;;;;;15.60;78.10;;;;;;5157620;27;20043;-41
2023/05/03 12:42:25;;;;;;;;;;;15.70;86.90;;;;;;5157420;27;20368;-40
2023/05/03 12:44:50;;;;;;;;;;;15.90;86.20;;;;;;5156614;27;20001;-40
2023/05/03 12:47:15;;;;;;;;;;;16.00;81.70;;;;;;5157456;27;19907;-41
2023/05/03 12:49:41;;;;;;;;;;;16.20;72.40;;;;;;5157118;27;19911;-39
2023/05/03 12:52:07;;;;;;;;;;;16.30;77.60;;;;;;5156425;27;20338;-42
2023/05/03 12:54:35;;;;;;;;;;;16.60;80.00;;;;;;5157022;27;19951;-40
2023/05/03 12:57:02;;;;;;;;;;;16.70;75.80;;;;;;5156574;27;19985;-42
2023/05/03 12:59:29;;;;;;;;;;;16.80;72.90;;;;;;5161837;27;19959;-40
2023/05/03 13:01:55;;;;;;;;;;;16.90;68.30;;;;;;5178028;27;20238;-41
2023/05/03 13:04:21;;;;;;;;;;;17.00;64.90;;;;;;5160473;27;19930;-40
2023/05/03 13:06:48;;;;;;;;;;;17.10;68.80;;;;;;5177168;27;19911;-40
2023/05/03 13:09:15;;;;;;;;;;;17.20;66.40;;;;;;5156166;27;19960;-40
2023/05/03 13:11:41;;;;;;;;;;;17.30;66.50;;;;;;5162912;27;20265;-41
2023/05/03 13:14:06;;;;;;;;;;;17.60;66.70;;;;;;5171657;27;19911;-41
2023/05/03 13:16:33;;;;;;;;;;;17.80;65.60;;;;;;5175325;27;19907;-42
2023/05/03 13:18:59;;;;;;;;;;;18.00;66.40;;;;;;5156183;27;19915;-41
2023/05/03 13:21:26;;;;;;;;;;;18.00;60.10;;;;;;5156597;27;20218;-42
2023/05/03 13:23:51;;;;;;;;;;;18.20;63.00;;;;;;5156589;27;20363;-42
2023/05/03 13:26:17;;;;;;;;;;;18.40;65.40;;;;;;5156001;27;20353;-40
2023/05/03 13:28:42;;;;;;;;;;;18.70;64.80;;;;;;5156568;27;20310;-41
2023/05/03 13:31:09;;;;;;;;;;;18.80;63.20;;;;;;5156024;27;19914;-43
2023/05/03 13:33:36;;;;;;;;;;;19.00;65.60;;;;;;5155968;27;20273;-41
2023/05/03 13:36:02;;;;;;;;;;;19.20;64.00;;;;;;5170938;27;19961;-41
2023/05/03 13:38:28;;;;;;;;;;;19.30;60.30;;;;;;5176829;27;19958;-42
2023/05/03 13:40:54;;;;;;;;;;;19.40;57.10;;;;;;5174523;27;19913;-42
2023/05/03 13:43:20;;;;;;;;;;;19.60;61.80;;;;;;5165585;27;19912;-43
2023/05/03 13:45:45;;;;;;;;;;;19.70;60.40;;;;;;5176878;27;20288;-43
2023/05/03 13:48:11;;;;;;;;;;;19.80;56.30;;;;;;5176289;27;19913;-41
2023/05/03 13:50:36;;;;;;;;;;;19.70;56.90;;;;;;5176847;27;20368;-40
2023/05/03 13:53:01;;;;;;;;;;;19.70;56.00;;;;;;5176663;27;19907;-42
2023/05/03 13:55:27;;;;;;;;;;;19.90;54.70;;;;;;5176273;27;20399;-42
2023/05/03 13:57:52;;;;;;;;;;;19.80;53.50;;;;;;5176748;27;19914;-41
2023/05/03 14:00:19;;;;;;;;;;;19.90;55.50;;;;;;5176299;27;19995;-41
2023/05/03 14:02:45;;;;;;;;;;;19.90;54.70;;;;;;5176612;27;20379;-41
2023/05/03 14:05:13;;;;;;;;;;;19.80;52.00;;;;;;5176441;27;19965;-42
2023/05/03 14:07:38;;;;;;;;;;;19.80;54.10;;;;;;5175129;27;20317;-42
2023/05/03 14:10:04;;;;;;;;;;;20.10;52.70;;;;;;5174549;27;20437;-41
2023/05/03 14:12:35;;;;;;;;;;;20.20;52.60;;;;;;5157536;27;19907;-41
2023/05/03 14:15:13;;;;;;;;;;;20.40;53.80;;;;;;5173476;27;19911;-43
2023/05/03 14:17:47;;;;;;;;;;;20.50;52.90;;;;;;5175967;27;19915;-41
2023/05/03 14:20:16;;;;;;;;;;;20.70;53.30;;;;;;5175581;27;20352;-43